sensor_id;sensor_type;location;lat;lon;timestamp;temperature;humidity
3055;DHT22;1537;52.018;8.542;2022-12-07T00:01:19;4.40;92.10
3055;DHT22;1537;52.018;8.542;2022-12-07T00:04:44;4.50;92.20
3055;DHT22;1537;52.018;8.542;2022-12-07T00:08:08;4.50;92.30
3055;DHT22;1537;52.018;8.542;2022-12-07T00:11:33;4.50;92.30
3055;DHT22;1537;52.018;8.542;2022-12-07T00:14:57;4.60;92.30
3055;DHT22;1537;52.018;8.542;2022-12-07T00:18:21;4.60;92.40
3055;DHT22;1537;52.018;8.542;2022-12-07T00:21:44;4.60;92.40
3055;DHT22;1537;52.018;8.542;2022-12-07T00:25:08;4.60;92.40
3055;DHT22;1537;52.018;8.542;2022-12-07T00:28:33;4.60;92.40
3055;DHT22;1537;52.018;8.542;2022-12-07T00:31:57;4.70;92.40
3055;DHT22;1537;52.018;8.542;2022-12-07T00:35:21;4.60;92.40
3055;DHT22;1537;52.018;8.542;2022-12-07T00:38:44;4.60;92.40
3055;DHT22;1537;52.018;8.542;2022-12-07T00:42:08;4.60;92.40
3055;DHT22;1537;52.018;8.542;2022-12-07T00:45:33;4.60;92.30
3055;DHT22;1537;52.018;8.542;2022-12-07T00:48:57;4.70;92.30
3055;DHT22;1537;52.018;8.542;2022-12-07T00:52:21;4.70;92.20
3055;DHT22;1537;52.018;8.542;2022-12-07T00:55:45;4.70;92.10
3055;DHT22;1537;52.018;8.542;2022-12-07T00:59:12;4.70;92.10
3055;DHT22;1537;52.018;8.542;2022-12-07T01:02:39;4.70;92.00
3055;DHT22;1537;52.018;8.542;2022-12-07T01:06:03;4.80;92.10
3055;DHT22;1537;52.018;8.542;2022-12-07T01:09:27;4.80;91.80
3055;DHT22;1537;52.018;8.542;2022-12-07T01:12:51;4.80;91.80
3055;DHT22;1537;52.018;8.542;2022-12-07T01:16:15;4.80;91.80
3055;DHT22;1537;52.018;8.542;2022-12-07T01:19:41;4.90;91.80
3055;DHT22;1537;52.018;8.542;2022-12-07T01:23:04;4.90;91.80
3055;DHT22;1537;52.018;8.542;2022-12-07T01:26:28;4.90;91.70
3055;DHT22;1537;52.018;8.542;2022-12-07T01:29:52;5.00;91.60
3055;DHT22;1537;52.018;8.542;2022-12-07T01:33:16;5.00;91.60
3055;DHT22;1537;52.018;8.542;2022-12-07T01:36:41;5.00;91.50
3055;DHT22;1537;52.018;8.542;2022-12-07T01:40:06;5.00;91.50
3055;DHT22;1537;52.018;8.542;2022-12-07T01:43:32;5.00;91.20
3055;DHT22;1537;52.018;8.542;2022-12-07T01:46:57;4.90;91.10
3055;DHT22;1537;52.018;8.542;2022-12-07T01:50:23;4.90;91.10
3055;DHT22;1537;52.018;8.542;2022-12-07T01:53:49;4.90;91.10
3055;DHT22;1537;52.018;8.542;2022-12-07T01:57:15;4.80;91.00
3055;DHT22;1537;52.018;8.542;2022-12-07T02:00:40;4.80;91.10
3055;DHT22;1537;52.018;8.542;2022-12-07T02:04:06;4.80;91.10
3055;DHT22;1537;52.018;8.542;2022-12-07T02:07:31;4.80;91.00
3055;DHT22;1537;52.018;8.542;2022-12-07T02:10:57;4.80;91.00
3055;DHT22;1537;52.018;8.542;2022-12-07T02:14:20;4.70;91.00
3055;DHT22;1537;52.018;8.542;2022-12-07T02:17:50;4.70;91.00
3055;DHT22;1537;52.018;8.542;2022-12-07T02:21:19;4.60;90.90
3055;DHT22;1537;52.018;8.542;2022-12-07T02:24:53;4.50;90.90
3055;DHT22;1537;52.018;8.542;2022-12-07T02:28:28;4.50;91.00
3055;DHT22;1537;52.018;8.542;2022-12-07T02:32:02;4.40;91.10
3055;DHT22;1537;52.018;8.542;2022-12-07T02:35:30;4.40;91.10
3055;DHT22;1537;52.018;8.542;2022-12-07T02:38:59;4.30;91.10
3055;DHT22;1537;52.018;8.542;2022-12-07T02:42:30;4.30;91.30
3055;DHT22;1537;52.018;8.542;2022-12-07T02:45:59;4.30;91.40
3055;DHT22;1537;52.018;8.542;2022-12-07T02:49:27;4.30;91.30
3055;DHT22;1537;52.018;8.542;2022-12-07T02:52:51;4.30;91.30
3055;DHT22;1537;52.018;8.542;2022-12-07T02:56:22;4.30;91.30
3055;DHT22;1537;52.018;8.542;2022-12-07T02:59:59;4.20;91.20
3055;DHT22;1537;52.018;8.542;2022-12-07T03:03:24;4.20;91.30
3055;DHT22;1537;52.018;8.542;2022-12-07T03:06:56;4.20;91.30
3055;DHT22;1537;52.018;8.542;2022-12-07T03:10:24;4.20;91.20
3055;DHT22;1537;52.018;8.542;2022-12-07T03:13:55;4.10;91.20
3055;DHT22;1537;52.018;8.542;2022-12-07T03:17:25;4.10;91.20
3055;DHT22;1537;52.018;8.542;2022-12-07T03:20:56;4.10;91.20
3055;DHT22;1537;52.018;8.542;2022-12-07T03:24:27;4.10;91.20
3055;DHT22;1537;52.018;8.542;2022-12-07T03:27:55;4.00;91.00
3055;DHT22;1537;52.018;8.542;2022-12-07T03:31:23;4.00;91.10
3055;DHT22;1537;52.018;8.542;2022-12-07T03:34:51;4.00;91.00
3055;DHT22;1537;52.018;8.542;2022-12-07T03:38:20;4.00;91.10
3055;DHT22;1537;52.018;8.542;2022-12-07T03:41:48;4.00;91.10
3055;DHT22;1537;52.018;8.542;2022-12-07T03:45:12;4.00;91.30
3055;DHT22;1537;52.018;8.542;2022-12-07T03:48:41;4.00;91.30
3055;DHT22;1537;52.018;8.542;2022-12-07T03:52:12;3.90;91.30
3055;DHT22;1537;52.018;8.542;2022-12-07T03:55:42;3.90;91.30
3055;DHT22;1537;52.018;8.542;2022-12-07T03:59:08;3.90;91.30
3055;DHT22;1537;52.018;8.542;2022-12-07T04:02:33;4.00;91.50
3055;DHT22;1537;52.018;8.542;2022-12-07T04:05:59;4.10;91.20
3055;DHT22;1537;52.018;8.542;2022-12-07T04:09:23;4.00;91.00
3055;DHT22;1537;52.018;8.542;2022-12-07T04:12:46;3.90;91.00
3055;DHT22;1537;52.018;8.542;2022-12-07T04:16:12;3.90;91.10
3055;DHT22;1537;52.018;8.542;2022-12-07T04:19:35;3.90;91.20
3055;DHT22;1537;52.018;8.542;2022-12-07T04:23:00;4.00;91.20
3055;DHT22;1537;52.018;8.542;2022-12-07T04:26:23;3.90;91.10
3055;DHT22;1537;52.018;8.542;2022-12-07T04:29:47;4.00;91.00
3055;DHT22;1537;52.018;8.542;2022-12-07T04:33:12;4.00;91.00
3055;DHT22;1537;52.018;8.542;2022-12-07T04:36:36;4.00;90.90
3055;DHT22;1537;52.018;8.542;2022-12-07T04:39:59;3.90;90.80
3055;DHT22;1537;52.018;8.542;2022-12-07T04:43:24;3.90;90.70
3055;DHT22;1537;52.018;8.542;2022-12-07T04:46:47;3.90;90.60
3055;DHT22;1537;52.018;8.542;2022-12-07T04:50:12;3.90;90.60
3055;DHT22;1537;52.018;8.542;2022-12-07T04:53:37;3.80;90.70
3055;DHT22;1537;52.018;8.542;2022-12-07T04:57:01;3.70;90.70
3055;DHT22;1537;52.018;8.542;2022-12-07T05:00:24;3.70;90.80
3055;DHT22;1537;52.018;8.542;2022-12-07T05:03:48;3.70;90.80
3055;DHT22;1537;52.018;8.542;2022-12-07T05:07:13;3.70;91.10
3055;DHT22;1537;52.018;8.542;2022-12-07T05:10:38;3.70;90.80
3055;DHT22;1537;52.018;8.542;2022-12-07T05:14:03;3.80;90.90
3055;DHT22;1537;52.018;8.542;2022-12-07T05:17:27;3.70;90.90
3055;DHT22;1537;52.018;8.542;2022-12-07T05:20:51;3.70;90.90
3055;DHT22;1537;52.018;8.542;2022-12-07T05:24:17;3.80;91.00
3055;DHT22;1537;52.018;8.542;2022-12-07T05:27:41;3.80;90.80
3055;DHT22;1537;52.018;8.542;2022-12-07T05:31:04;3.80;90.80
3055;DHT22;1537;52.018;8.542;2022-12-07T05:34:28;3.80;90.80
3055;DHT22;1537;52.018;8.542;2022-12-07T05:37:53;3.80;90.90
3055;DHT22;1537;52.018;8.542;2022-12-07T05:41:19;3.80;90.80
3055;DHT22;1537;52.018;8.542;2022-12-07T05:45:25;3.80;90.60
3055;DHT22;1537;52.018;8.542;2022-12-07T05:48:49;3.80;90.30
3055;DHT22;1537;52.018;8.542;2022-12-07T05:52:15;3.70;90.20
3055;DHT22;1537;52.018;8.542;2022-12-07T05:55:39;3.70;90.30
3055;DHT22;1537;52.018;8.542;2022-12-07T05:59:04;3.70;90.30
3055;DHT22;1537;52.018;8.542;2022-12-07T06:02:46;3.70;90.70
3055;DHT22;1537;52.018;8.542;2022-12-07T06:06:11;3.70;90.70
3055;DHT22;1537;52.018;8.542;2022-12-07T06:09:35;3.60;90.30
3055;DHT22;1537;52.018;8.542;2022-12-07T06:12:59;3.60;90.30
3055;DHT22;1537;52.018;8.542;2022-12-07T06:16:24;3.60;90.20
3055;DHT22;1537;52.018;8.542;2022-12-07T06:19:49;3.50;90.20
3055;DHT22;1537;52.018;8.542;2022-12-07T06:23:13;3.50;90.20
3055;DHT22;1537;52.018;8.542;2022-12-07T06:26:37;3.50;90.60
3055;DHT22;1537;52.018;8.542;2022-12-07T06:30:00;3.50;90.20
3055;DHT22;1537;52.018;8.542;2022-12-07T06:33:30;3.50;90.30
3055;DHT22;1537;52.018;8.542;2022-12-07T06:36:53;3.40;90.50
3055;DHT22;1537;52.018;8.542;2022-12-07T06:40:18;3.40;90.50
3055;DHT22;1537;52.018;8.542;2022-12-07T06:43:42;3.40;90.60
3055;DHT22;1537;52.018;8.542;2022-12-07T06:47:06;3.40;90.60
3055;DHT22;1537;52.018;8.542;2022-12-07T06:50:51;3.40;90.70
3055;DHT22;1537;52.018;8.542;2022-12-07T06:54:17;3.30;90.60
3055;DHT22;1537;52.018;8.542;2022-12-07T06:57:41;3.30;90.70
3055;DHT22;1537;52.018;8.542;2022-12-07T07:01:08;3.30;90.70
3055;DHT22;1537;52.018;8.542;2022-12-07T07:04:33;3.30;90.60
3055;DHT22;1537;52.018;8.542;2022-12-07T07:07:58;3.30;90.60
3055;DHT22;1537;52.018;8.542;2022-12-07T07:11:42;3.30;90.50
3055;DHT22;1537;52.018;8.542;2022-12-07T07:15:07;3.30;90.70
3055;DHT22;1537;52.018;8.542;2022-12-07T07:18:31;3.30;90.30
3055;DHT22;1537;52.018;8.542;2022-12-07T07:21:55;3.30;90.30
3055;DHT22;1537;52.018;8.542;2022-12-07T07:25:20;3.30;90.60
3055;DHT22;1537;52.018;8.542;2022-12-07T07:28:44;3.20;90.10
3055;DHT22;1537;52.018;8.542;2022-12-07T07:32:09;3.30;90.20
3055;DHT22;1537;52.018;8.542;2022-12-07T07:35:34;3.30;90.20
3055;DHT22;1537;52.018;8.542;2022-12-07T07:38:58;3.30;90.20
3055;DHT22;1537;52.018;8.542;2022-12-07T07:42:24;3.30;90.20
3055;DHT22;1537;52.018;8.542;2022-12-07T07:45:48;3.30;90.20
3055;DHT22;1537;52.018;8.542;2022-12-07T07:49:12;3.20;90.30
3055;DHT22;1537;52.018;8.542;2022-12-07T07:52:35;3.20;90.20
3055;DHT22;1537;52.018;8.542;2022-12-07T07:55:59;3.30;90.20
3055;DHT22;1537;52.018;8.542;2022-12-07T07:59:24;3.30;90.10
3055;DHT22;1537;52.018;8.542;2022-12-07T08:02:49;3.30;90.10
3055;DHT22;1537;52.018;8.542;2022-12-07T08:06:13;3.40;90.20
3055;DHT22;1537;52.018;8.542;2022-12-07T08:09:37;3.50;90.00
3055;DHT22;1537;52.018;8.542;2022-12-07T08:13:02;3.40;89.90
3055;DHT22;1537;52.018;8.542;2022-12-07T08:16:37;3.40;90.00
3055;DHT22;1537;52.018;8.542;2022-12-07T08:20:01;3.50;90.00
3055;DHT22;1537;52.018;8.542;2022-12-07T08:23:26;3.50;90.00
3055;DHT22;1537;52.018;8.542;2022-12-07T08:27:01;3.70;90.00
3055;DHT22;1537;52.018;8.542;2022-12-07T08:30:24;3.80;89.40
3055;DHT22;1537;52.018;8.542;2022-12-07T08:33:50;3.90;89.00
3055;DHT22;1537;52.018;8.542;2022-12-07T08:37:14;4.00;88.80
3055;DHT22;1537;52.018;8.542;2022-12-07T08:40:38;4.00;88.40
3055;DHT22;1537;52.018;8.542;2022-12-07T08:44:01;3.90;88.70
3055;DHT22;1537;52.018;8.542;2022-12-07T08:47:25;4.00;88.80
3055;DHT22;1537;52.018;8.542;2022-12-07T08:50:51;4.20;88.90
3055;DHT22;1537;52.018;8.542;2022-12-07T08:54:17;4.50;87.40
3055;DHT22;1537;52.018;8.542;2022-12-07T08:57:40;5.10;87.50
3055;DHT22;1537;52.018;8.542;2022-12-07T09:01:05;6.30;80.00
3055;DHT22;1537;52.018;8.542;2022-12-07T09:04:29;5.90;79.20
3055;DHT22;1537;52.018;8.542;2022-12-07T09:07:56;5.50;81.40
3055;DHT22;1537;52.018;8.542;2022-12-07T09:11:21;5.30;82.10
3055;DHT22;1537;52.018;8.542;2022-12-07T09:14:50;5.00;82.60
3055;DHT22;1537;52.018;8.542;2022-12-07T09:18:14;5.20;83.30
3055;DHT22;1537;52.018;8.542;2022-12-07T09:21:37;6.10;81.80
3055;DHT22;1537;52.018;8.542;2022-12-07T09:25:03;6.60;76.10
3055;DHT22;1537;52.018;8.542;2022-12-07T09:28:27;7.40;75.40
3055;DHT22;1537;52.018;8.542;2022-12-07T09:31:50;8.10;70.10
3055;DHT22;1537;52.018;8.542;2022-12-07T09:35:14;7.50;70.40
3055;DHT22;1537;52.018;8.542;2022-12-07T09:38:38;6.50;74.90
3055;DHT22;1537;52.018;8.542;2022-12-07T09:42:05;6.00;77.70
3055;DHT22;1537;52.018;8.542;2022-12-07T09:45:32;5.90;79.30
3055;DHT22;1537;52.018;8.542;2022-12-07T09:48:57;5.50;80.10
3055;DHT22;1537;52.018;8.542;2022-12-07T09:52:27;5.10;81.60
3055;DHT22;1537;52.018;8.542;2022-12-07T09:56:00;5.00;83.00
3055;DHT22;1537;52.018;8.542;2022-12-07T09:59:26;4.90;83.60
3055;DHT22;1537;52.018;8.542;2022-12-07T10:02:59;4.90;84.70
3055;DHT22;1537;52.018;8.542;2022-12-07T10:06:22;4.80;85.30
3055;DHT22;1537;52.018;8.542;2022-12-07T10:09:46;4.90;85.50
3055;DHT22;1537;52.018;8.542;2022-12-07T10:13:12;5.00;85.70
3055;DHT22;1537;52.018;8.542;2022-12-07T10:16:39;5.00;85.40
3055;DHT22;1537;52.018;8.542;2022-12-07T10:20:20;5.00;85.70
3055;DHT22;1537;52.018;8.542;2022-12-07T10:24:00;5.10;84.60
3055;DHT22;1537;52.018;8.542;2022-12-07T10:27:29;5.10;84.40
3055;DHT22;1537;52.018;8.542;2022-12-07T10:30:56;5.20;84.90
3055;DHT22;1537;52.018;8.542;2022-12-07T10:34:24;5.30;84.20
3055;DHT22;1537;52.018;8.542;2022-12-07T10:37:49;5.40;83.10
3055;DHT22;1537;52.018;8.542;2022-12-07T10:41:12;5.50;83.10
3055;DHT22;1537;52.018;8.542;2022-12-07T10:44:36;5.40;83.00
3055;DHT22;1537;52.018;8.542;2022-12-07T10:48:10;5.30;83.40
3055;DHT22;1537;52.018;8.542;2022-12-07T10:51:43;5.30;83.40
3055;DHT22;1537;52.018;8.542;2022-12-07T10:55:18;5.20;84.00
3055;DHT22;1537;52.018;8.542;2022-12-07T10:58:54;5.20;83.90
3055;DHT22;1537;52.018;8.542;2022-12-07T11:02:26;5.20;84.30
3055;DHT22;1537;52.018;8.542;2022-12-07T11:05:58;5.20;83.80
3055;DHT22;1537;52.018;8.542;2022-12-07T11:09:50;5.30;84.20
3055;DHT22;1537;52.018;8.542;2022-12-07T11:13:39;5.40;83.70
3055;DHT22;1537;52.018;8.542;2022-12-07T11:17:07;5.50;83.30
3055;DHT22;1537;52.018;8.542;2022-12-07T11:20:41;5.50;82.90
3055;DHT22;1537;52.018;8.542;2022-12-07T11:24:10;5.50;83.10
3055;DHT22;1537;52.018;8.542;2022-12-07T11:27:41;5.50;83.00
3055;DHT22;1537;52.018;8.542;2022-12-07T11:31:12;5.50;82.30
3055;DHT22;1537;52.018;8.542;2022-12-07T11:34:44;5.60;82.30
3055;DHT22;1537;52.018;8.542;2022-12-07T11:38:16;5.60;81.70
3055;DHT22;1537;52.018;8.542;2022-12-07T11:41:49;5.70;81.60
3055;DHT22;1537;52.018;8.542;2022-12-07T11:45:20;5.70;81.00
3055;DHT22;1537;52.018;8.542;2022-12-07T11:48:47;5.70;81.20
3055;DHT22;1537;52.018;8.542;2022-12-07T11:52:20;5.70;81.30
3055;DHT22;1537;52.018;8.542;2022-12-07T11:55:49;5.80;80.70
3055;DHT22;1537;52.018;8.542;2022-12-07T11:59:19;5.80;81.00
3055;DHT22;1537;52.018;8.542;2022-12-07T12:02:51;5.70;80.30
3055;DHT22;1537;52.018;8.542;2022-12-07T12:06:19;5.60;81.10
3055;DHT22;1537;52.018;8.542;2022-12-07T12:09:49;5.70;81.10
3055;DHT22;1537;52.018;8.542;2022-12-07T12:13:51;5.80;80.70
3055;DHT22;1537;52.018;8.542;2022-12-07T12:17:45;5.90;79.20
3055;DHT22;1537;52.018;8.542;2022-12-07T12:21:16;5.80;79.60
3055;DHT22;1537;52.018;8.542;2022-12-07T12:24:42;5.80;79.80
3055;DHT22;1537;52.018;8.542;2022-12-07T12:28:20;5.80;79.20
3055;DHT22;1537;52.018;8.542;2022-12-07T12:31:47;5.80;78.80
3055;DHT22;1537;52.018;8.542;2022-12-07T12:35:30;5.80;79.30
3055;DHT22;1537;52.018;8.542;2022-12-07T12:39:11;5.80;79.30
3055;DHT22;1537;52.018;8.542;2022-12-07T12:42:44;5.80;78.70
3055;DHT22;1537;52.018;8.542;2022-12-07T12:50:18;5.70;78.60
3055;DHT22;1537;52.018;8.542;2022-12-07T12:53:43;5.80;78.50
3055;DHT22;1537;52.018;8.542;2022-12-07T12:57:11;5.70;78.10
3055;DHT22;1537;52.018;8.542;2022-12-07T13:00:36;5.70;78.60
3055;DHT22;1537;52.018;8.542;2022-12-07T13:04:03;5.80;78.10
3055;DHT22;1537;52.018;8.542;2022-12-07T13:07:57;5.80;78.10
3055;DHT22;1537;52.018;8.542;2022-12-07T13:11:28;5.90;78.00
3055;DHT22;1537;52.018;8.542;2022-12-07T13:14:57;5.90;77.30
3055;DHT22;1537;52.018;8.542;2022-12-07T13:18:24;6.00;77.70
3055;DHT22;1537;52.018;8.542;2022-12-07T13:21:55;6.10;77.50
3055;DHT22;1537;52.018;8.542;2022-12-07T13:25:30;6.10;76.60
3055;DHT22;1537;52.018;8.542;2022-12-07T13:29:06;6.00;76.80
3055;DHT22;1537;52.018;8.542;2022-12-07T13:32:34;5.80;76.40
3055;DHT22;1537;52.018;8.542;2022-12-07T13:35:58;5.70;76.80
3055;DHT22;1537;52.018;8.542;2022-12-07T13:39:24;5.60;76.40
3055;DHT22;1537;52.018;8.542;2022-12-07T13:42:57;5.50;76.40
3055;DHT22;1537;52.018;8.542;2022-12-07T13:46:26;5.40;77.30
3055;DHT22;1537;52.018;8.542;2022-12-07T13:49:53;5.40;77.40
3055;DHT22;1537;52.018;8.542;2022-12-07T13:53:17;5.50;78.00
3055;DHT22;1537;52.018;8.542;2022-12-07T13:56:41;5.50;77.70
3055;DHT22;1537;52.018;8.542;2022-12-07T14:00:14;5.50;77.80
3055;DHT22;1537;52.018;8.542;2022-12-07T14:03:39;5.60;78.50
3055;DHT22;1537;52.018;8.542;2022-12-07T14:07:20;5.60;78.10
3055;DHT22;1537;52.018;8.542;2022-12-07T14:10:55;5.50;78.00
3055;DHT22;1537;52.018;8.542;2022-12-07T14:14:21;5.50;78.60
3055;DHT22;1537;52.018;8.542;2022-12-07T14:17:50;5.40;78.10
3055;DHT22;1537;52.018;8.542;2022-12-07T14:21:16;5.50;77.90
3055;DHT22;1537;52.018;8.542;2022-12-07T14:24:44;5.40;78.00
3055;DHT22;1537;52.018;8.542;2022-12-07T14:28:25;5.30;77.90
3055;DHT22;1537;52.018;8.542;2022-12-07T14:31:49;5.30;77.80
3055;DHT22;1537;52.018;8.542;2022-12-07T14:35:14;5.20;78.00
3055;DHT22;1537;52.018;8.542;2022-12-07T14:38:38;5.20;78.10
3055;DHT22;1537;52.018;8.542;2022-12-07T14:42:03;5.20;78.20
3055;DHT22;1537;52.018;8.542;2022-12-07T14:45:27;5.20;78.30
3055;DHT22;1537;52.018;8.542;2022-12-07T14:48:51;5.10;78.90
3055;DHT22;1537;52.018;8.542;2022-12-07T14:52:34;5.10;78.90
3055;DHT22;1537;52.018;8.542;2022-12-07T14:56:18;5.10;79.70
3055;DHT22;1537;52.018;8.542;2022-12-07T14:59:43;5.10;79.90
3055;DHT22;1537;52.018;8.542;2022-12-07T15:03:06;5.00;80.00
3055;DHT22;1537;52.018;8.542;2022-12-07T15:06:33;5.10;80.50
3055;DHT22;1537;52.018;8.542;2022-12-07T15:09:56;5.00;80.60
3055;DHT22;1537;52.018;8.542;2022-12-07T15:13:20;5.00;81.10
3055;DHT22;1537;52.018;8.542;2022-12-07T15:17:02;5.00;81.00
3055;DHT22;1537;52.018;8.542;2022-12-07T15:20:34;5.00;81.40
3055;DHT22;1537;52.018;8.542;2022-12-07T15:23:58;5.00;82.40
3055;DHT22;1537;52.018;8.542;2022-12-07T15:27:21;4.90;82.80
3055;DHT22;1537;52.018;8.542;2022-12-07T15:30:45;4.90;82.30
3055;DHT22;1537;52.018;8.542;2022-12-07T15:34:10;4.90;82.50
3055;DHT22;1537;52.018;8.542;2022-12-07T15:37:34;4.90;82.50
3055;DHT22;1537;52.018;8.542;2022-12-07T15:40:57;4.90;82.50
3055;DHT22;1537;52.018;8.542;2022-12-07T15:44:21;4.90;82.40
3055;DHT22;1537;52.018;8.542;2022-12-07T15:48:02;4.90;82.20
3055;DHT22;1537;52.018;8.542;2022-12-07T15:51:47;4.90;82.00
3055;DHT22;1537;52.018;8.542;2022-12-07T15:55:11;4.90;82.20
3055;DHT22;1537;52.018;8.542;2022-12-07T15:58:35;4.90;82.20
3055;DHT22;1537;52.018;8.542;2022-12-07T16:01:59;4.90;82.50
3055;DHT22;1537;52.018;8.542;2022-12-07T16:05:23;4.90;82.60
3055;DHT22;1537;52.018;8.542;2022-12-07T16:08:48;4.90;82.50
3055;DHT22;1537;52.018;8.542;2022-12-07T16:12:13;5.00;82.40
3055;DHT22;1537;52.018;8.542;2022-12-07T16:15:38;4.60;80.90
3055;DHT22;1537;52.018;8.542;2022-12-07T16:19:02;3.90;81.00
3055;DHT22;1537;52.018;8.542;2022-12-07T16:22:26;3.40;82.50
3055;DHT22;1537;52.018;8.542;2022-12-07T16:25:51;2.90;84.00
3055;DHT22;1537;52.018;8.542;2022-12-07T16:29:15;2.90;85.30
3055;DHT22;1537;52.018;8.542;2022-12-07T16:32:38;2.90;85.80
3055;DHT22;1537;52.018;8.542;2022-12-07T16:36:03;3.10;86.10
3055;DHT22;1537;52.018;8.542;2022-12-07T16:39:27;3.30;86.00
3055;DHT22;1537;52.018;8.542;2022-12-07T16:42:52;3.40;85.90
3055;DHT22;1537;52.018;8.542;2022-12-07T16:46:17;3.50;86.50
3055;DHT22;1537;52.018;8.542;2022-12-07T16:49:42;3.60;87.10
3055;DHT22;1537;52.018;8.542;2022-12-07T16:53:09;3.70;87.20
3055;DHT22;1537;52.018;8.542;2022-12-07T16:56:33;3.80;87.30
3055;DHT22;1537;52.018;8.542;2022-12-07T16:59:58;3.80;87.10
3055;DHT22;1537;52.018;8.542;2022-12-07T17:03:24;3.90;87.10
3055;DHT22;1537;52.018;8.542;2022-12-07T17:06:47;3.90;87.00
3055;DHT22;1537;52.018;8.542;2022-12-07T17:10:11;4.00;87.00
3055;DHT22;1537;52.018;8.542;2022-12-07T17:13:35;4.00;87.10
3055;DHT22;1537;52.018;8.542;2022-12-07T17:17:29;4.00;87.00
3055;DHT22;1537;52.018;8.542;2022-12-07T17:20:52;4.00;87.00
3055;DHT22;1537;52.018;8.542;2022-12-07T17:24:16;4.00;86.70
3055;DHT22;1537;52.018;8.542;2022-12-07T17:27:40;4.00;86.70
3055;DHT22;1537;52.018;8.542;2022-12-07T17:31:05;4.10;86.70
3055;DHT22;1537;52.018;8.542;2022-12-07T17:34:30;4.10;86.70
3055;DHT22;1537;52.018;8.542;2022-12-07T17:37:54;4.10;86.60
3055;DHT22;1537;52.018;8.542;2022-12-07T17:41:20;4.10;86.50
3055;DHT22;1537;52.018;8.542;2022-12-07T17:44:59;4.10;86.50
3055;DHT22;1537;52.018;8.542;2022-12-07T17:48:25;4.10;86.50
3055;DHT22;1537;52.018;8.542;2022-12-07T17:51:50;4.10;86.60
3055;DHT22;1537;52.018;8.542;2022-12-07T17:55:31;4.10;86.80
3055;DHT22;1537;52.018;8.542;2022-12-07T17:59:16;4.10;86.90
3055;DHT22;1537;52.018;8.542;2022-12-07T18:02:40;4.10;87.20
3055;DHT22;1537;52.018;8.542;2022-12-07T18:06:04;4.10;86.80
3055;DHT22;1537;52.018;8.542;2022-12-07T18:09:29;4.10;87.00
3055;DHT22;1537;52.018;8.542;2022-12-07T18:12:53;4.20;87.10
3055;DHT22;1537;52.018;8.542;2022-12-07T18:16:37;4.20;87.20
3055;DHT22;1537;52.018;8.542;2022-12-07T18:20:01;4.30;87.40
3055;DHT22;1537;52.018;8.542;2022-12-07T18:23:25;4.40;87.50
3055;DHT22;1537;52.018;8.542;2022-12-07T18:26:50;4.30;87.10
3055;DHT22;1537;52.018;8.542;2022-12-07T18:30:14;4.20;87.40
3055;DHT22;1537;52.018;8.542;2022-12-07T18:33:38;4.20;87.40
3055;DHT22;1537;52.018;8.542;2022-12-07T18:37:02;4.10;86.80
3055;DHT22;1537;52.018;8.542;2022-12-07T18:40:25;4.10;86.90
3055;DHT22;1537;52.018;8.542;2022-12-07T18:43:50;4.10;86.70
3055;DHT22;1537;52.018;8.542;2022-12-07T18:47:14;4.10;86.30
3055;DHT22;1537;52.018;8.542;2022-12-07T18:50:38;4.00;85.70
3055;DHT22;1537;52.018;8.542;2022-12-07T18:54:02;4.00;86.00
3055;DHT22;1537;52.018;8.542;2022-12-07T18:57:26;4.00;86.30
3055;DHT22;1537;52.018;8.542;2022-12-07T19:00:51;4.00;86.30
3055;DHT22;1537;52.018;8.542;2022-12-07T19:04:15;4.00;86.10
3055;DHT22;1537;52.018;8.542;2022-12-07T19:07:38;4.00;86.50
3055;DHT22;1537;52.018;8.542;2022-12-07T19:11:02;4.10;86.80
3055;DHT22;1537;52.018;8.542;2022-12-07T19:14:46;4.00;87.10
3055;DHT22;1537;52.018;8.542;2022-12-07T19:18:11;4.00;87.10
3055;DHT22;1537;52.018;8.542;2022-12-07T19:21:35;4.10;87.50
3055;DHT22;1537;52.018;8.542;2022-12-07T19:24:59;4.20;87.50
3055;DHT22;1537;52.018;8.542;2022-12-07T19:28:23;4.20;87.50
3055;DHT22;1537;52.018;8.542;2022-12-07T19:31:47;4.30;87.50
3055;DHT22;1537;52.018;8.542;2022-12-07T19:35:12;4.30;87.70
3055;DHT22;1537;52.018;8.542;2022-12-07T19:38:36;4.20;88.00
3055;DHT22;1537;52.018;8.542;2022-12-07T19:42:00;4.20;88.00
3055;DHT22;1537;52.018;8.542;2022-12-07T19:45:24;4.30;88.30
3055;DHT22;1537;52.018;8.542;2022-12-07T19:48:50;4.20;88.60
3055;DHT22;1537;52.018;8.542;2022-12-07T19:52:20;4.20;88.50
3055;DHT22;1537;52.018;8.542;2022-12-07T19:55:58;4.30;88.50
3055;DHT22;1537;52.018;8.542;2022-12-07T19:59:23;4.10;88.40
3055;DHT22;1537;52.018;8.542;2022-12-07T20:02:52;4.10;88.80
3055;DHT22;1537;52.018;8.542;2022-12-07T20:06:19;4.10;89.20
3055;DHT22;1537;52.018;8.542;2022-12-07T20:09:47;4.10;89.30
3055;DHT22;1537;52.018;8.542;2022-12-07T20:13:14;4.20;89.20
3055;DHT22;1537;52.018;8.542;2022-12-07T20:16:57;4.10;89.20
3055;DHT22;1537;52.018;8.542;2022-12-07T20:20:24;4.00;89.40
3055;DHT22;1537;52.018;8.542;2022-12-07T20:23:49;4.10;89.90
3055;DHT22;1537;52.018;8.542;2022-12-07T20:27:27;4.10;89.60
3055;DHT22;1537;52.018;8.542;2022-12-07T20:30:52;4.10;89.40
3055;DHT22;1537;52.018;8.542;2022-12-07T20:34:22;4.10;89.40
3055;DHT22;1537;52.018;8.542;2022-12-07T20:37:50;4.10;89.40
3055;DHT22;1537;52.018;8.542;2022-12-07T20:41:23;4.00;89.10
3055;DHT22;1537;52.018;8.542;2022-12-07T20:45:19;4.00;89.20
3055;DHT22;1537;52.018;8.542;2022-12-07T20:48:45;3.90;89.10
3055;DHT22;1537;52.018;8.542;2022-12-07T20:52:15;3.90;89.30
3055;DHT22;1537;52.018;8.542;2022-12-07T20:55:44;3.90;89.40
3055;DHT22;1537;52.018;8.542;2022-12-07T20:59:13;3.90;89.30
3055;DHT22;1537;52.018;8.542;2022-12-07T21:02:41;3.90;89.30
3055;DHT22;1537;52.018;8.542;2022-12-07T21:06:05;3.90;89.40
3055;DHT22;1537;52.018;8.542;2022-12-07T21:09:32;3.80;90.00
3055;DHT22;1537;52.018;8.542;2022-12-07T21:13:01;3.90;89.60
3055;DHT22;1537;52.018;8.542;2022-12-07T21:16:29;3.90;89.60
3055;DHT22;1537;52.018;8.542;2022-12-07T21:19:55;3.90;89.20
3055;DHT22;1537;52.018;8.542;2022-12-07T21:23:28;3.90;89.20
3055;DHT22;1537;52.018;8.542;2022-12-07T21:26:52;3.80;89.20
3055;DHT22;1537;52.018;8.542;2022-12-07T21:30:16;3.80;89.20
3055;DHT22;1537;52.018;8.542;2022-12-07T21:33:41;3.90;89.20
3055;DHT22;1537;52.018;8.542;2022-12-07T21:37:06;3.90;89.10
3055;DHT22;1537;52.018;8.542;2022-12-07T21:40:31;3.80;88.90
3055;DHT22;1537;52.018;8.542;2022-12-07T21:43:55;3.80;89.00
3055;DHT22;1537;52.018;8.542;2022-12-07T21:47:19;3.80;89.30
3055;DHT22;1537;52.018;8.542;2022-12-07T21:50:46;3.70;89.20
3055;DHT22;1537;52.018;8.542;2022-12-07T21:54:12;3.70;89.40
3055;DHT22;1537;52.018;8.542;2022-12-07T21:57:37;3.80;89.20
3055;DHT22;1537;52.018;8.542;2022-12-07T22:01:01;3.80;89.00
3055;DHT22;1537;52.018;8.542;2022-12-07T22:04:25;3.80;89.00
3055;DHT22;1537;52.018;8.542;2022-12-07T22:07:50;3.90;88.80
3055;DHT22;1537;52.018;8.542;2022-12-07T22:11:15;3.90;88.90
3055;DHT22;1537;52.018;8.542;2022-12-07T22:14:42;3.90;88.40
3055;DHT22;1537;52.018;8.542;2022-12-07T22:18:25;3.80;88.20
3055;DHT22;1537;52.018;8.542;2022-12-07T22:21:49;3.80;88.70
3055;DHT22;1537;52.018;8.542;2022-12-07T22:25:15;3.80;88.50
3055;DHT22;1537;52.018;8.542;2022-12-07T22:28:42;3.80;88.30
3055;DHT22;1537;52.018;8.542;2022-12-07T22:32:06;3.70;89.00
3055;DHT22;1537;52.018;8.542;2022-12-07T22:35:51;3.70;88.40
3055;DHT22;1537;52.018;8.542;2022-12-07T22:39:19;3.60;88.60
3055;DHT22;1537;52.018;8.542;2022-12-07T22:42:43;3.60;88.70
3055;DHT22;1537;52.018;8.542;2022-12-07T22:46:08;3.60;88.60
3055;DHT22;1537;52.018;8.542;2022-12-07T22:49:33;3.60;88.70
3055;DHT22;1537;52.018;8.542;2022-12-07T22:52:57;3.60;88.70
3055;DHT22;1537;52.018;8.542;2022-12-07T22:56:21;3.60;88.70
3055;DHT22;1537;52.018;8.542;2022-12-07T22:59:46;3.60;88.50